| time (UTC) | temp F | wind direction | speed MPH | gust MPH | rain 1hr in | rain 24hr in | rain mn in | humidity % | barometer mb |
| 20260905214504 | 69 | 0.0 | 0.0 | 0.00 | 0.03 | 0.03 | 61 | 1020.5 | |
| 20260905213003 | 69 | 0.0 | 0.0 | 0.00 | 0.03 | 0.03 | 60 | 1020.5 | |
| 20260905211502 | 70 | 0.0 | 0.0 | 0.00 | 0.03 | 0.03 | 59 | 1020.4 | |
| 20260905210113 | 70 | 0.0 | 0.0 | 0.00 | 0.03 | 0.03 | 58 | 1020.3 | |
| 20260905204607 | 70 | 0.0 | 0.0 | 0.00 | 0.03 | 0.03 | 58 | 1020.2 | |
| 20260905203117 | 70 | 0.0 | 0.0 | 0.00 | 0.03 | 0.03 | 57 | 1020.1 | |
| 20260905201601 | 70 | 0.0 | 0.0 | 0.00 | 0.03 | 0.03 | 58 | 1020.1 | |
| 20260905194557 | 70 | 0.0 | 0.0 | 0.00 | 0.03 | 0.03 | 59 | 1019.8 | |
| 20260905193055 | 70 | 0.0 | 0.0 | 0.00 | 0.03 | 0.03 | 60 | 1019.7 | |
| 20260905191555 | 70 | 0.0 | 0.0 | 0.00 | 0.03 | 0.03 | 60 | 1019.7 | |
| 20260905190053 | 70 | 0.0 | 0.0 | 0.00 | 0.03 | 0.03 | 60 | 1019.6 | |
| 20260905184555 | 70 | 0.0 | 0.0 | 0.00 | 0.03 | 0.03 | 58 | 1019.4 | |
| 20260905183055 | 71 | 0.0 | 0.0 | 0.00 | 0.03 | 0.03 | 57 | 1019.2 | |
| 20260905181603 | 71 | 0.0 | 0.0 | 0.00 | 0.03 | 0.03 | 57 | 1019.0 | |
| 20260905180047 | 71 | 0.0 | 0.0 | 0.00 | 0.03 | 0.03 | 56 | 1018.8 | |
| 20260905174552 | 72 | 0.0 | 0.0 | 0.00 | 0.03 | 0.03 | 55 | 1018.5 | |
| 20260905173047 | 72 | 0.0 | 0.0 | 0.00 | 0.03 | 0.03 | 54 | 1018.4 | |
| 20260905171547 | 73 | 0.0 | 0.0 | 0.00 | 0.03 | 0.03 | 53 | 1018.2 | |
| 20260905170046 | 74 | 0.0 | 0.0 | 0.00 | 0.03 | 0.03 | 51 | 1018.1 | |
| 20260905164545 | 74 | 0.0 | 0.0 | 0.00 | 0.03 | 0.03 | 50 | 1017.9 | |
| 20260905163047 | 74 | 0.0 | 0.0 | 0.00 | 0.03 | 0.03 | 49 | 1017.6 | |
| 20260905161544 | 75 | 0.0 | 0.0 | 0.00 | 0.03 | 0.03 | 49 | 1017.6 | |
| 20260905160110 | 75 | 0.0 | 0.0 | 0.00 | 0.03 | 0.03 | 48 | 1017.6 | |
| 20260905154548 | 76 | 0.0 | 0.0 | 0.00 | 0.03 | 0.03 | 48 | 1017.5 | |
| 20260905153043 | 75 | 0.0 | 0.0 | 0.00 | 0.03 | 0.03 | 48 | 1017.5 | |
| 20260905151544 | 75 | 0.0 | 0.0 | 0.00 | 0.03 | 0.03 | 49 | 1017.3 | |
| 20260905150042 | 75 | 0.0 | 0.0 | 0.00 | 0.03 | 0.03 | 48 | 1017.3 | |
| 20260905144542 | 76 | 0.0 | 0.0 | 0.00 | 0.03 | 0.03 | 49 | 1017.4 | |
| 20260905143041 | 76 | 0.0 | 0.0 | 0.00 | 0.03 | 0.03 | 48 | 1017.5 | |
| 20260905141543 | 75 | 0.0 | 0.0 | 0.00 | 0.03 | 0.03 | 49 | 1017.5 | |
| 20260905140039 | 74 | 0.0 | 0.0 | 0.00 | 0.03 | 0.03 | 51 | 1017.5 | |
| 20260905134539 | 75 | 0.0 | 0.0 | 0.00 | 0.03 | 0.03 | 52 | 1017.6 | |
| 20260905133040 | 74 | 0.0 | 0.0 | 0.00 | 0.03 | 0.03 | 52 | 1017.6 | |
| 20260905131538 | 74 | 0.0 | 0.0 | 0.00 | 0.03 | 0.03 | 53 | 1017.8 | |
| 20260905130037 | 73 | 0.0 | 0.0 | 0.00 | 0.03 | 0.03 | 53 | 1017.9 | |
| 20260905124541 | 73 | 0.0 | 0.0 | 0.00 | 0.03 | 0.03 | 53 | 1017.7 | |
| 20260905123037 | 74 | 0.0 | 0.0 | 0.00 | 0.03 | 0.03 | 53 | 1017.7 | |
| 20260905121535 | 73 | 0.0 | 0.0 | 0.00 | 0.03 | 0.03 | 56 | 1017.6 | |
| 20260905120034 | 72 | 0.0 | 0.0 | 0.00 | 0.03 | 0.03 | 56 | 1017.8 | |
| 20260905114534 | 72 | 0.0 | 0.0 | 0.00 | 0.03 | 0.03 | 56 | 1017.7 | |
| 20260905113033 | 72 | 0.0 | 0.0 | 0.00 | 0.03 | 0.03 | 55 | 1017.7 | |
| 20260905111533 | 72 | 0.0 | 0.0 | 0.00 | 0.03 | 0.03 | 57 | 1017.6 | |
| 20260905110032 | 72 | 0.0 | 0.0 | 0.00 | 0.03 | 0.03 | 59 | 1017.9 | |
| 20260905104531 | 71 | 0.0 | 0.0 | 0.00 | 0.03 | 0.03 | 61 | 1017.7 | |
| 20260905103039 | 70 | 0.0 | 0.0 | 0.00 | 0.03 | 0.03 | 63 | 1017.8 | |
| 20260905101533 | 70 | 0.0 | 0.0 | 0.00 | 0.03 | 0.03 | 64 | 1017.6 | |
| 20260905100031 | 68 | 0.0 | 0.0 | 0.00 | 0.03 | 0.03 | 66 | 1017.6 | |
| 20260905094536 | 67 | 0.0 | 0.0 | 0.00 | 0.03 | 0.03 | 69 | 1017.8 | |
| 20260905093030 | 66 | 0.0 | 0.0 | 0.00 | 0.03 | 0.03 | 69 | 1017.8 | |
| 20260905091600 | 65 | 0.0 | 0.0 | 0.00 | 0.03 | 0.03 | 72 | 1017.8 | |
| 20260905090029 | 64 | 0.0 | 0.0 | 0.00 | 0.03 | 0.03 | 74 | 1017.7 | |
| 20260905084528 | 64 | 0.0 | 0.0 | 0.00 | 0.03 | 0.03 | 74 | 1017.9 | |
| 20260905083028 | 63 | 0.0 | 0.0 | 0.00 | 0.03 | 0.03 | 73 | 1017.9 | |
| 20260905081527 | 64 | 0.0 | 0.0 | 0.00 | 0.03 | 0.03 | 70 | 1018.4 | |
| 20260905080036 | 64 | 0.0 | 0.0 | 0.00 | 0.03 | 0.03 | 69 | 1018.6 | |
| 20260905074526 | 64 | 0.0 | 0.0 | 0.00 | 0.03 | 0.03 | 69 | 1018.8 | |
| 20260905073025 | 64 | 0.0 | 0.0 | 0.00 | 0.03 | 0.03 | 67 | 1018.9 | |
| 20260905071523 | 65 | 0.0 | 0.0 | 0.00 | 0.03 | 0.03 | 66 | 1018.7 | |
| 20260905070025 | 65 | 0.0 | 0.0 | 0.00 | 0.03 | 0.03 | 65 | 1018.1 | |
| 20260905064521 | 65 | 0.0 | 0.0 | 0.00 | 0.03 | 0.03 | 65 | 1018.4 | |
| 20260905063019 | 65 | 0.0 | 0.0 | 0.00 | 0.03 | 0.03 | 64 | 1018.1 | |
| 20260905061517 | 66 | 0.0 | 0.0 | 0.00 | 0.03 | 0.03 | 62 | 1018.1 | |
| 20260905060015 | 66 | 0.0 | 0.0 | 0.00 | 0.03 | 0.03 | 60 | 1017.2 | |
| 20260905054516 | 66 | 0.0 | 0.0 | 0.00 | 0.03 | 0.03 | 64 | 1016.3 | |
| 20260905053010 | 66 | 0.0 | 0.0 | 0.00 | 0.03 | 0.03 | 65 | 1015.9 | |
| 20260905051512 | 66 | 0.0 | 0.0 | 0.00 | 0.03 | 0.03 | 69 | 1015.5 | |
| 20260905050005 | 65 | 0.0 | 0.0 | 0.00 | 0.03 | 0.03 | 70 | 1015.2 | |
| 20260905044505 | 65 | 0.0 | 0.0 | 0.00 | 0.03 | 0.03 | 71 | 1014.5 | |
| 20260905043003 | 66 | 0.0 | 0.0 | 0.00 | 0.03 | 0.03 | 70 | 1014.3 | |
| 20260905041502 | 66 | 0.0 | 0.0 | 0.00 | 0.03 | 0.03 | 70 | 1014.9 | |
| 20260905040059 | 66 | 0.0 | 0.0 | 0.00 | 0.03 | 0.03 | 73 | 1014.1 | |
| 20260905034609 | 67 | 0.0 | 0.0 | 0.01 | 0.03 | 0.03 | 74 | 1013.9 | |
| 20260905033055 | 68 | 0.0 | 0.0 | 0.03 | 0.03 | 0.03 | 76 | 1013.7 | |
| 20260905031553 | 69 | 0.0 | 0.0 | 0.03 | 0.03 | 0.03 | 77 | 1013.3 | |
| 20260905030046 | 70 | 0.0 | 0.0 | 0.03 | 0.03 | 0.03 | 73 | 1011.8 | |
| 20260905024543 | 78 | 0.0 | 0.0 | 0.02 | 0.02 | 0.02 | 55 | 1011.9 | |
| 20260905023041 | 78 | 0.0 | 0.0 | 0.00 | 0.00 | 0.00 | 48 | 1011.1 | |
| 20260905021541 | 78 | 0.0 | 0.0 | 0.00 | 0.00 | 0.00 | 48 | 1011.4 | |
| 20260905020037 | 76 | 0.0 | 0.0 | 0.00 | 0.00 | 0.00 | 49 | 1011.2 | |
| 20260905014536 | 73 | 0.0 | 0.0 | 0.00 | 0.00 | 0.00 | 54 | 1011.2 | |
| 20260905013031 | 71 | 0.0 | 0.0 | 0.00 | 0.00 | 0.00 | 57 | 1011.2 | |
| 20260905011529 | 71 | 0.0 | 0.0 | 0.00 | 0.00 | 0.00 | 58 | 1011.2 | |
| 20260905010028 | 72 | 0.0 | 0.0 | 0.00 | 0.00 | 0.00 | 56 | 1011.3 | |
| 20260905004538 | 72 | 0.0 | 0.0 | 0.00 | 0.00 | 0.00 | 56 | 1011.2 | |
| 20260905003032 | 72 | 0.0 | 0.0 | 0.00 | 0.00 | 0.00 | 56 | 1011.0 | |
| 20260905001544 | 71 | 0.0 | 0.0 | 0.00 | 0.00 | 0.00 | 59 | 1010.9 | |
| 20260905000025 | 72 | 0.0 | 0.0 | 0.00 | 0.00 | 0.00 | 58 | 1010.9 | |
| 20260904234532 | 72 | 0.0 | 0.0 | 0.00 | 0.00 | 0.00 | 57 | 1010.9 | |
| 20260904233039 | 72 | 0.0 | 0.0 | 0.00 | 0.00 | 0.00 | 57 | 1010.9 | |
| 20260904231530 | 72 | 0.0 | 0.0 | 0.00 | 0.00 | 0.00 | 58 | 1010.8 | |
| 20260904230020 | 70 | 0.0 | 0.0 | 0.00 | 0.00 | 0.00 | 60 | 1010.5 | |
| 20260904224519 | 70 | 0.0 | 0.0 | 0.00 | 0.00 | 0.00 | 61 | 1010.5 | |
| 20260904223018 | 71 | 0.0 | 0.0 | 0.00 | 0.00 | 0.00 | 60 | 1010.4 | |
| 20260904221513 | 72 | 0.0 | 0.0 | 0.00 | 0.00 | 0.00 | 57 | 1010.5 | |
| 20260904220010 | 73 | 0.0 | 0.0 | 0.00 | 0.00 | 0.00 | 56 | 1010.4 |